Kezdőlap
METAR-TAF:

METAR-TAF

Repülőterek :

Fort McMurray, Alberta, Kanada

földrajzi szélesség: 56-39N, földrajzi hosszúság: 111-13W, magasság: 369 m

Jelenlegi meteorológiai megfigyelések

A jelentés 39 perccel ezelõtt készült, 10:00 UTC
Keleti szél 2 kt
Hőmérséklet 15°C
Páratartalom 94%
Légköri nyomás 1022 hPa
Látótávolság: 2.8 km
Borult 3700 lábon
Párásság

METAR: CYMM 211000Z AUTO 10002KT 1 3/4SM BR OVC037 15/14 A3018 RMK SLP228

Idő: 04:39 (10:39 UTC)

Előrejelzés

A jelentés 3 órával és 59 perccel ezelõtt készült, 06:40 UTC
Az előrejelzés 21-én 07 óra UTC és 21-én 19 óra UTC között érvényes
Különbözõ irányokból fújó szél 3 kt
Látótávolság: 1.6 km
Derült ég
füst
21-én 07 óra UTC és 21-én 19 óra UTC között ideiglenes
Látótávolság: 4.8 km
füst

TAF: CYMM 210640Z 2107/2119 VRB03KT 1SM FU SKC TEMPO 2107/2119 3SM FU RMK FCST BASED ON AUTO OBS. NXT FCST BY 211300Z

Meteorológiai megfigyelések és előrejelzések több, mint 4000 repülőtéren (METAR és TAF jelentéseket).

A térképen piros és sárga pontok jelzik az elérhető meteorológiai állomásokat.

Mozgassa az egeret a pont fölött, hogy megjelenjen az állomás neve.

Azután kattintson az időjárási megfigyelések és előrejelzések megtekintéséhez.

A térkép megváltoztatása: kattintson a fekete keresztel jelölt zöld gombra ráközelítéshez, a vonallal jelölt zöld gombra távolításhoz, vagy a zöld nyilakra a szomszédos térképek eléréséhez.


METAR-TAF: